Lucy Reinauer — WCX8054 — position and weather

sailwx.info

Track history (hours):
 
Tides and Currents Weather Stations Pressure Air Temp Water Temp Dewpoint Dewpoint Depression Visibility Wind Speed Wind Dir Waves Ship Positions

Lucy Reinauer

Owner: REINAUER TRANSPORTATION CO. LLC, STATEN ISLAND, NY. More information available from US FCC via Universal Licensing System and Coast Guard Vessel Documentation Center.

Last reported at 2018-Jun-18 07:13 UTC. Time now 2018-Jun-19 14:24 UTC.
Position N 40°51' W 073°57'.

Length 128 m; draft 6.6 m.

Type: Tug. MMSI: 366926920.

Date/timePositionNaut miles runAvg speedWind from/ knotsBaromVisibWave heightAir tempDewpointWater temp
2018-Jun-18 07:13N 40°51' W 073°57'4 9.8
2018-Jun-18 06:49N 40°47' W 073°59'310.0
2018-Jun-18 06:30N 40°45' W 074°01'5 9.8
2018-Jun-18 06:00N 40°40' W 074°03'4 8.9
2018-Jun-18 05:30N 40°39' W 074°08'3 0.1
2018-Jun-17 04:15N 40°37' W 074°12'2 5.9
2018-Jun-17 04:00N 40°38' W 074°12'4 7.4
2018-Jun-17 03:30N 40°39' W 074°07'4 8.6
2018-Jun-17 03:00N 40°41' W 074°02'1 1.6
2018-Jun-17 02:30N 40°40' W 074°01'0 0.0
2018-Jun-17 02:00N 40°40' W 074°01'0 0.3
2018-Jun-17 01:30N 40°40' W 074°01'0 0.3
2018-Jun-17 01:00N 40°40' W 074°01'1 3.0
2018-Jun-17 00:30N 40°39' W 074°03'1 1.1
2018-Jun-17 00:00N 40°39' W 074°03'3 6.9
2018-Jun-16 23:30N 40°39' W 074°08'9 0.6
2018-Jun-16 08:50N 40°32' W 074°15'7 0.2
2018-Jun-14 17:01N 40°39' W 074°11'2 8.7
2018-Jun-14 16:47N 40°39' W 074°09'2 7.0
2018-Jun-14 16:27N 40°39' W 074°06'3 6.0
2018-Jun-14 16:00N 40°40' W 074°02'0 0.3
2018-Jun-14 15:30N 40°40' W 074°02'0 0.0
2018-Jun-14 15:00N 40°40' W 074°02'0 0.0
2018-Jun-14 14:30N 40°40' W 074°02'0 0.0
2018-Jun-14 14:00N 40°40' W 074°02'0 0.0
2018-Jun-14 13:29N 40°40' W 074°02'0 0.1
2018-Jun-14 13:00N 40°40' W 074°02'1 1.5
2018-Jun-14 12:30N 40°40' W 074°02'1 1.4
2018-Jun-14 12:00N 40°40' W 074°01'0 0.1
2018-Jun-14 11:30N 40°40' W 074°01'0 0.0
2018-Jun-14 11:00N 40°40' W 074°01'0 0.0
2018-Jun-14 10:30N 40°40' W 074°01'0 0.0
2018-Jun-14 10:00N 40°40' W 074°01'0 0.0
2018-Jun-14 09:30N 40°40' W 074°01'0 0.0
2018-Jun-14 09:00N 40°40' W 074°01'0 0.0
2018-Jun-14 08:30N 40°40' W 074°01'0 0.0
2018-Jun-14 08:00N 40°40' W 074°01'0 0.0
2018-Jun-14 07:30N 40°40' W 074°01'0 0.0
2018-Jun-14 07:00N 40°40' W 074°01'0 0.0
2018-Jun-14 06:30N 40°40' W 074°01'0 0.0
2018-Jun-14 06:00N 40°40' W 074°01'0 0.0
2018-Jun-14 05:30N 40°40' W 074°01'0 0.0
2018-Jun-14 05:00N 40°40' W 074°01'0 0.0
2018-Jun-14 04:30N 40°40' W 074°01'0 0.0
2018-Jun-14 04:00N 40°40' W 074°01'0 0.0
2018-Jun-14 03:30N 40°40' W 074°01'0 0.0
2018-Jun-14 03:00N 40°40' W 074°01'0 0.0
2018-Jun-14 02:30N 40°40' W 074°01'0 0.0
2018-Jun-14 02:00N 40°40' W 074°01'0 0.0
2018-Jun-14 01:30N 40°40' W 074°01'0 0.0
2018-Jun-14 01:00N 40°40' W 074°01'0 0.0
2018-Jun-14 00:30N 40°40' W 074°01'0 0.0
2018-Jun-14 00:00N 40°40' W 074°01'0 0.0
2018-Jun-13 23:30N 40°40' W 074°01'0 0.1
2018-Jun-13 23:00N 40°40' W 074°01'0 0.1
2018-Jun-13 22:30N 40°40' W 074°01'0 0.0
2018-Jun-13 22:00N 40°40' W 074°01'0 0.0
2018-Jun-13 21:30N 40°40' W 074°01'0 0.3
2018-Jun-13 21:00N 40°40' W 074°01'0 0.1
2018-Jun-13 20:30N 40°40' W 074°01'3 6.4
2018-Jun-13 20:00N 40°39' W 074°05'2 3.2
2018-Jun-13 19:30N 40°39' W 074°07'0 0.2
2018-Jun-13 19:00N 40°39' W 074°07'0 0.0
2018-Jun-13 18:30N 40°39' W 074°07'0 0.0
2018-Jun-13 18:00N 40°39' W 074°07'0 0.0
2018-Jun-13 17:30N 40°39' W 074°07'0 0.0
2018-Jun-13 17:00N 40°39' W 074°07'0 0.0
2018-Jun-13 16:30N 40°39' W 074°07'0 0.0
2018-Jun-13 16:01N 40°39' W 074°07'0 0.0
2018-Jun-13 15:30N 40°39' W 074°07'0 0.0
2018-Jun-13 15:00N 40°39' W 074°07'0 0.0
2018-Jun-13 14:30N 40°39' W 074°07'0 0.0
2018-Jun-13 14:00N 40°39' W 074°07'0 0.0
2018-Jun-13 13:30N 40°39' W 074°07'0 0.0
2018-Jun-13 13:00N 40°39' W 074°07'0 0.0
2018-Jun-13 12:30N 40°39' W 074°07'0 0.8
2018-Jun-13 12:00N 40°38' W 074°08'0 0.0
2018-Jun-13 11:30N 40°38' W 074°08'2 4.3
2018-Jun-13 11:00N 40°39' W 074°05'3 6.5
2018-Jun-13 10:30N 40°40' W 074°01'0 0.0
2018-Jun-13 10:00N 40°40' W 074°01'0 0.0
2018-Jun-13 09:30N 40°40' W 074°01'0 0.0
2018-Jun-13 09:00N 40°40' W 074°01'0 0.0
2018-Jun-13 08:30N 40°40' W 074°01'0 0.0
2018-Jun-13 08:00N 40°40' W 074°01'0 0.0
2018-Jun-13 07:30N 40°40' W 074°01'0 0.8
2018-Jun-13 07:00N 40°41' W 074°01'1 1.7
2018-Jun-13 06:30N 40°40' W 074°00'1 1.3
2018-Jun-13 06:00N 40°40' W 074°01'0 0.4
2018-Jun-13 05:30N 40°40' W 074°01'0 0.0
2018-Jun-13 05:00N 40°40' W 074°01'0 0.0
2018-Jun-13 04:30N 40°40' W 074°01'0 0.0
2018-Jun-13 04:01N 40°40' W 074°01'0 0.0
2018-Jun-13 03:30N 40°40' W 074°01'0 0.0
2018-Jun-13 03:00N 40°40' W 074°01'0 0.0
2018-Jun-13 02:31N 40°40' W 074°01'0 0.0
2018-Jun-13 02:00N 40°40' W 074°01'0 0.0
2018-Jun-13 01:30N 40°40' W 074°01'0 0.0
2018-Jun-13 01:00N 40°40' W 074°01'0 0.0
2018-Jun-13 00:30N 40°40' W 074°01'0 0.0
2018-Jun-13 00:00N 40°40' W 074°01'0 0.0
2018-Jun-12 23:30N 40°40' W 074°01'0 0.0
2018-Jun-12 23:00N 40°40' W 074°01'0 0.0
2018-Jun-12 22:30N 40°40' W 074°01'0 0.0
2018-Jun-12 22:00N 40°40' W 074°01'0 0.0
2018-Jun-12 21:30N 40°40' W 074°01'0 0.0
2018-Jun-12 21:00N 40°40' W 074°01'0 0.0
2018-Jun-12 20:31N 40°40' W 074°01'0 0.0
2018-Jun-12 20:00N 40°40' W 074°01'0 1.0
2018-Jun-12 19:30N 40°40' W 074°00'1 2.9
2018-Jun-12 19:00N 40°39' W 074°02'4 7.7
2018-Jun-12 18:30N 40°39' W 074°07'0 0.0
2018-Jun-12 18:00N 40°39' W 074°07'1 0.2
2018-Jun-12 14:55N 40°38' W 074°08'0 0.0
2018-Jun-12 13:49N 40°38' W 074°08'1 0.1
2018-Jun-12 01:57N 40°39' W 074°07'0 0.0
2018-Jun-12 01:30N 40°39' W 074°07'0 0.0
2018-Jun-12 01:00N 40°39' W 074°07'0 0.0
2018-Jun-12 00:30N 40°39' W 074°07'0 0.0
2018-Jun-11 23:58N 40°39' W 074°07'1 1.6
2018-Jun-11 23:02N 40°39' W 074°05'1 5.4
2018-Jun-11 22:56N 40°39' W 074°04'1 2.9
2018-Jun-11 22:30N 40°39' W 074°03'0 0.2
2018-Jun-11 21:58N 40°39' W 074°03'1 1.9
2018-Jun-11 21:24N 40°40' W 074°02'1 2.8
2018-Jun-11 21:00N 40°41' W 074°02'1 1.3
2018-Jun-11 20:30N 40°40' W 074°01'0 0.0
2018-Jun-11 20:00N 40°40' W 074°01'0 0.0
2018-Jun-11 19:29N 40°40' W 074°01'0 0.0
2018-Jun-11 17:18N 40°40' W 074°01'0 0.0
2018-Jun-11 15:59N 40°40' W 074°01'0 0.0
2018-Jun-11 15:30N 40°40' W 074°01'0 0.0
2018-Jun-11 14:57N 40°40' W 074°01'0 0.0
2018-Jun-11 13:33N 40°40' W 074°01'0 0.1
2018-Jun-11 13:20N 40°40' W 074°01'0 0.0
2018-Jun-11 12:56N 40°40' W 074°01'0 0.0
2018-Jun-11 12:26N 40°40' W 074°01'0 0.0
2018-Jun-11 11:59N 40°40' W 074°01'0 0.0
2018-Jun-11 11:29N 40°40' W 074°01'0 0.0
2018-Jun-11 10:59N 40°40' W 074°01'0 0.0
2018-Jun-11 10:29N 40°40' W 074°01'0 0.0
2018-Jun-11 09:59N 40°40' W 074°01'0 0.0
2018-Jun-11 09:17N 40°40' W 074°01'0 0.0
2018-Jun-11 08:11N 40°40' W 074°01'0 0.0
2018-Jun-11 07:56N 40°40' W 074°01'0 0.0
2018-Jun-11 07:26N 40°40' W 074°01'0 0.0
2018-Jun-11 06:59N 40°40' W 074°01'0 0.0
2018-Jun-11 06:29N 40°40' W 074°01'0 0.0
2018-Jun-11 05:59N 40°40' W 074°01'0 0.0
2018-Jun-11 05:29N 40°40' W 074°01'0 0.0
2018-Jun-11 04:59N 40°40' W 074°01'0 0.0
2018-Jun-11 04:29N 40°40' W 074°01'0 0.0
2018-Jun-11 03:59N 40°40' W 074°01'0 0.1
2018-Jun-11 03:29N 40°40' W 074°01'0 0.0
2018-Jun-11 02:59N 40°40' W 074°01'0 0.0
2018-Jun-11 02:29N 40°40' W 074°01'0 0.0
2018-Jun-11 01:59N 40°40' W 074°01'0 0.0
2018-Jun-11 01:29N 40°40' W 074°01'0 0.0
2018-Jun-11 00:59N 40°40' W 074°01'0 0.0
2018-Jun-11 00:29N 40°40' W 074°01'0 0.0
2018-Jun-10 23:59N 40°40' W 074°01'0 0.0
2018-Jun-10 23:29N 40°40' W 074°01'0 0.0
2018-Jun-10 22:59N 40°40' W 074°01'0 0.0
2018-Jun-10 22:29N 40°40' W 074°01'0 0.0
2018-Jun-10 21:59N 40°40' W 074°01'0 0.0
2018-Jun-10 21:29N 40°40' W 074°01'0 0.0
2018-Jun-10 20:59N 40°40' W 074°01'0 0.0
2018-Jun-10 20:29N 40°40' W 074°01'0 0.0
2018-Jun-10 19:59N 40°40' W 074°01'0 0.0
2018-Jun-10 19:29N 40°40' W 074°01'0 0.0
2018-Jun-10 18:59N 40°40' W 074°01'0 0.0
2018-Jun-10 18:29N 40°40' W 074°01'0 0.0
2018-Jun-10 17:59N 40°40' W 074°01'0 0.0
2018-Jun-10 17:29N 40°40' W 074°01'0 0.0
2018-Jun-10 16:59N 40°40' W 074°01'0 0.0
2018-Jun-10 16:29N 40°40' W 074°01'0 0.0
2018-Jun-10 15:59N 40°40' W 074°01'0 0.0
2018-Jun-10 15:29N 40°40' W 074°01'0 0.0
2018-Jun-10 14:59N 40°40' W 074°01'0 0.0
2018-Jun-10 14:29N 40°40' W 074°01'0 0.0
2018-Jun-10 13:29N 40°40' W 074°01'0 0.0
2018-Jun-10 12:59N 40°40' W 074°01'0 0.0
2018-Jun-10 12:29N 40°40' W 074°01'0 0.0
2018-Jun-10 11:59N 40°40' W 074°01'0 0.0
2018-Jun-10 11:29N 40°40' W 074°01'0 0.0
2018-Jun-10 10:59N 40°40' W 074°01'0 0.0
2018-Jun-10 10:29N 40°40' W 074°01'0 0.0
2018-Jun-10 09:59N 40°40' W 074°01'0 0.0
2018-Jun-10 09:29N 40°40' W 074°01'0 0.0
2018-Jun-10 08:59N 40°40' W 074°01'0 0.0
2018-Jun-10 08:29N 40°40' W 074°01'0 0.0
2018-Jun-10 07:59N 40°40' W 074°01'0 0.0
2018-Jun-10 07:29N 40°40' W 074°01'0 0.0
2018-Jun-10 06:59N 40°40' W 074°01'0 0.0
2018-Jun-10 06:29N 40°40' W 074°01'0 0.0
2018-Jun-10 05:59N 40°40' W 074°01'0 0.0
2018-Jun-10 05:29N 40°40' W 074°01'0 0.0
2018-Jun-10 04:59N 40°40' W 074°01'0 0.0
2018-Jun-10 04:29N 40°40' W 074°01'0 0.0
2018-Jun-10 03:59N 40°40' W 074°01'0 0.0
2018-Jun-10 03:29N 40°40' W 074°01'0 0.0
2018-Jun-10 02:59N 40°40' W 074°01'0 0.0
2018-Jun-10 02:29N 40°40' W 074°01'0 0.0
2018-Jun-10 01:59N 40°40' W 074°01'0 0.0
2018-Jun-10 01:29N 40°40' W 074°01'0 0.0
2018-Jun-10 00:59N 40°40' W 074°01'0 0.0
2018-Jun-10 00:29N 40°40' W 074°01'0 0.0
2018-Jun-09 23:59N 40°40' W 074°01'0 0.0
2018-Jun-09 23:29N 40°40' W 074°01'0 0.0
2018-Jun-09 22:59N 40°40' W 074°01'0 0.0
2018-Jun-09 22:29N 40°40' W 074°01'0 0.0
2018-Jun-09 21:59N 40°40' W 074°01'0 0.0
2018-Jun-09 21:31N 40°40' W 074°01'510.0
2018-Jun-09 21:00N 40°39' W 074°07'0 0.7
2018-Jun-09 20:30N 40°38' W 074°08'0 0.0
2018-Jun-09 20:00N 40°38' W 074°08'0 0.0
2018-Jun-09 19:00N 40°38' W 074°08'0 0.0
2018-Jun-09 18:30N 40°38' W 074°08'0 0.0
2018-Jun-09 18:00N 40°38' W 074°08'0 0.0
2018-Jun-09 17:30N 40°38' W 074°08'0 0.0
2018-Jun-09 16:54N 40°38' W 074°08'0 0.0
2018-Jun-09 16:30N 40°38' W 074°08'0 0.0
2018-Jun-09 16:00N 40°38' W 074°08'0 0.0
2018-Jun-09 15:00N 40°38' W 074°08'0 0.0
2018-Jun-09 14:30N 40°38' W 074°08'0 0.0
2018-Jun-09 14:00N 40°38' W 074°08'0 0.0
2018-Jun-09 13:30N 40°38' W 074°08'0 0.0
2018-Jun-09 13:00N 40°38' W 074°08'0 0.0
2018-Jun-09 12:30N 40°38' W 074°08'0 0.0
2018-Jun-09 12:00N 40°38' W 074°08'0 0.0
2018-Jun-09 11:30N 40°38' W 074°08'0 0.0
2018-Jun-09 11:00N 40°38' W 074°08'1 1.0
2018-Jun-09 10:30N 40°39' W 074°07'4 9.0
2018-Jun-09 10:00N 40°41' W 074°02'1 1.6
2018-Jun-09 09:29N 40°40' W 074°01'0 0.0
2018-Jun-09 08:59N 40°40' W 074°01'0 0.0
2018-Jun-09 08:29N 40°40' W 074°01'0 0.0
2018-Jun-09 07:59N 40°40' W 074°01'0 0.0
2018-Jun-09 07:29N 40°40' W 074°01'0 0.0
2018-Jun-09 06:59N 40°40' W 074°01'0 0.0
2018-Jun-09 06:29N 40°40' W 074°01'0 0.0
2018-Jun-09 05:59N 40°40' W 074°01'0 0.0
2018-Jun-09 05:29N 40°40' W 074°01'0 0.0
2018-Jun-09 04:59N 40°40' W 074°01'0 0.5
2018-Jun-09 04:30N 40°40' W 074°01'1 2.2
2018-Jun-09 04:01N 40°40' W 074°02'0 0.8
2018-Jun-09 03:29N 40°40' W 074°02'0 0.0
2018-Jun-09 02:59N 40°40' W 074°02'0 0.0
2018-Jun-09 02:29N 40°40' W 074°02'0 0.0
2018-Jun-09 01:59N 40°40' W 074°02'0 0.1
2018-Jun-09 01:29N 40°40' W 074°02'0 0.0
2018-Jun-09 00:59N 40°40' W 074°02'0 0.0
2018-Jun-09 00:29N 40°40' W 074°02'0 0.0
2018-Jun-08 23:59N 40°40' W 074°02'0 0.1
2018-Jun-08 23:29N 40°40' W 074°02'0 0.1
2018-Jun-08 22:59N 40°40' W 074°02'1 2.2
2018-Jun-08 22:31N 40°40' W 074°01'1 1.9
2018-Jun-08 22:00N 40°40' W 074°02'1 1.8
2018-Jun-08 21:30N 40°41' W 074°02'4 8.4
2018-Jun-08 21:00N 40°45' W 074°01'  
Track history (hours):
 
Tides and Currents Weather Stations Pressure Air Temp Water Temp Dewpoint Dewpoint Depression Visibility Wind Speed Wind Dir Waves Ship Positions

Lucy Reinauer

Owner: REINAUER TRANSPORTATION CO. LLC, STATEN ISLAND, NY. More information available from US FCC via Universal Licensing System and Coast Guard Vessel Documentation Center.

Last reported at 2018-Jun-18 07:13 UTC. Time now 2018-Jun-19 14:24 UTC.
Position N 40°51' W 073°57'.

Length 128 m; draft 6.6 m.

Type: Tug. MMSI: 366926920.

Date/timePositionNaut miles runAvg speedWind from/ knotsBaromVisibWave heightAir tempDewpointWater temp
2018-Jun-18 07:13N 40°51' W 073°57'4 9.8
2018-Jun-18 06:49N 40°47' W 073°59'310.0
2018-Jun-18 06:30N 40°45' W 074°01'5 9.8
2018-Jun-18 06:00N 40°40' W 074°03'4 8.9
2018-Jun-18 05:30N 40°39' W 074°08'3 0.1
2018-Jun-17 04:15N 40°37' W 074°12'2 5.9
2018-Jun-17 04:00N 40°38' W 074°12'4 7.4
2018-Jun-17 03:30N 40°39' W 074°07'4 8.6
2018-Jun-17 03:00N 40°41' W 074°02'1 1.6
2018-Jun-17 02:30N 40°40' W 074°01'0 0.0
2018-Jun-17 02:00N 40°40' W 074°01'0 0.3
2018-Jun-17 01:30N 40°40' W 074°01'0 0.3
2018-Jun-17 01:00N 40°40' W 074°01'1 3.0
2018-Jun-17 00:30N 40°39' W 074°03'1 1.1
2018-Jun-17 00:00N 40°39' W 074°03'3 6.9
2018-Jun-16 23:30N 40°39' W 074°08'9 0.6
2018-Jun-16 08:50N 40°32' W 074°15'7 0.2
2018-Jun-14 17:01N 40°39' W 074°11'2 8.7
2018-Jun-14 16:47N 40°39' W 074°09'2 7.0
2018-Jun-14 16:27N 40°39' W 074°06'3 6.0
2018-Jun-14 16:00N 40°40' W 074°02'0 0.3
2018-Jun-14 15:30N 40°40' W 074°02'0 0.0
2018-Jun-14 15:00N 40°40' W 074°02'0 0.0
2018-Jun-14 14:30N 40°40' W 074°02'0 0.0
2018-Jun-14 14:00N 40°40' W 074°02'0 0.0
2018-Jun-14 13:29N 40°40' W 074°02'0 0.1
2018-Jun-14 13:00N 40°40' W 074°02'1 1.5
2018-Jun-14 12:30N 40°40' W 074°02'1 1.4
2018-Jun-14 12:00N 40°40' W 074°01'0 0.1
2018-Jun-14 11:30N 40°40' W 074°01'0 0.0
2018-Jun-14 11:00N 40°40' W 074°01'0 0.0
2018-Jun-14 10:30N 40°40' W 074°01'0 0.0
2018-Jun-14 10:00N 40°40' W 074°01'0 0.0
2018-Jun-14 09:30N 40°40' W 074°01'0 0.0
2018-Jun-14 09:00N 40°40' W 074°01'0 0.0
2018-Jun-14 08:30N 40°40' W 074°01'0 0.0
2018-Jun-14 08:00N 40°40' W 074°01'0 0.0
2018-Jun-14 07:30N 40°40' W 074°01'0 0.0
2018-Jun-14 07:00N 40°40' W 074°01'0 0.0
2018-Jun-14 06:30N 40°40' W 074°01'0 0.0
2018-Jun-14 06:00N 40°40' W 074°01'0 0.0
2018-Jun-14 05:30N 40°40' W 074°01'0 0.0
2018-Jun-14 05:00N 40°40' W 074°01'0 0.0
2018-Jun-14 04:30N 40°40' W 074°01'0 0.0
2018-Jun-14 04:00N 40°40' W 074°01'0 0.0
2018-Jun-14 03:30N 40°40' W 074°01'0 0.0
2018-Jun-14 03:00N 40°40' W 074°01'0 0.0
2018-Jun-14 02:30N 40°40' W 074°01'0 0.0
2018-Jun-14 02:00N 40°40' W 074°01'0 0.0
2018-Jun-14 01:30N 40°40' W 074°01'0 0.0
2018-Jun-14 01:00N 40°40' W 074°01'0 0.0
2018-Jun-14 00:30N 40°40' W 074°01'0 0.0
2018-Jun-14 00:00N 40°40' W 074°01'0 0.0
2018-Jun-13 23:30N 40°40' W 074°01'0 0.1
2018-Jun-13 23:00N 40°40' W 074°01'0 0.1
2018-Jun-13 22:30N 40°40' W 074°01'0 0.0
2018-Jun-13 22:00N 40°40' W 074°01'0 0.0
2018-Jun-13 21:30N 40°40' W 074°01'0 0.3
2018-Jun-13 21:00N 40°40' W 074°01'0 0.1
2018-Jun-13 20:30N 40°40' W 074°01'3 6.4
2018-Jun-13 20:00N 40°39' W 074°05'2 3.2
2018-Jun-13 19:30N 40°39' W 074°07'0 0.2
2018-Jun-13 19:00N 40°39' W 074°07'0 0.0
2018-Jun-13 18:30N 40°39' W 074°07'0 0.0
2018-Jun-13 18:00N 40°39' W 074°07'0 0.0
2018-Jun-13 17:30N 40°39' W 074°07'0 0.0
2018-Jun-13 17:00N 40°39' W 074°07'0 0.0
2018-Jun-13 16:30N 40°39' W 074°07'0 0.0
2018-Jun-13 16:01N 40°39' W 074°07'0 0.0
2018-Jun-13 15:30N 40°39' W 074°07'0 0.0
2018-Jun-13 15:00N 40°39' W 074°07'0 0.0
2018-Jun-13 14:30N 40°39' W 074°07'0 0.0
2018-Jun-13 14:00N 40°39' W 074°07'0 0.0
2018-Jun-13 13:30N 40°39' W 074°07'0 0.0
2018-Jun-13 13:00N 40°39' W 074°07'0 0.0
2018-Jun-13 12:30N 40°39' W 074°07'0 0.8
2018-Jun-13 12:00N 40°38' W 074°08'0 0.0
2018-Jun-13 11:30N 40°38' W 074°08'2 4.3
2018-Jun-13 11:00N 40°39' W 074°05'3 6.5
2018-Jun-13 10:30N 40°40' W 074°01'0 0.0
2018-Jun-13 10:00N 40°40' W 074°01'0 0.0
2018-Jun-13 09:30N 40°40' W 074°01'0 0.0
2018-Jun-13 09:00N 40°40' W 074°01'0 0.0
2018-Jun-13 08:30N 40°40' W 074°01'0 0.0
2018-Jun-13 08:00N 40°40' W 074°01'0 0.0
2018-Jun-13 07:30N 40°40' W 074°01'0 0.8
2018-Jun-13 07:00N 40°41' W 074°01'1 1.7
2018-Jun-13 06:30N 40°40' W 074°00'1 1.3
2018-Jun-13 06:00N 40°40' W 074°01'0 0.4
2018-Jun-13 05:30N 40°40' W 074°01'0 0.0
2018-Jun-13 05:00N 40°40' W 074°01'0 0.0
2018-Jun-13 04:30N 40°40' W 074°01'0 0.0
2018-Jun-13 04:01N 40°40' W 074°01'0 0.0
2018-Jun-13 03:30N 40°40' W 074°01'0 0.0
2018-Jun-13 03:00N 40°40' W 074°01'0 0.0
2018-Jun-13 02:31N 40°40' W 074°01'0 0.0
2018-Jun-13 02:00N 40°40' W 074°01'0 0.0
2018-Jun-13 01:30N 40°40' W 074°01'0 0.0
2018-Jun-13 01:00N 40°40' W 074°01'0 0.0
2018-Jun-13 00:30N 40°40' W 074°01'0 0.0
2018-Jun-13 00:00N 40°40' W 074°01'0 0.0
2018-Jun-12 23:30N 40°40' W 074°01'0 0.0
2018-Jun-12 23:00N 40°40' W 074°01'0 0.0
2018-Jun-12 22:30N 40°40' W 074°01'0 0.0
2018-Jun-12 22:00N 40°40' W 074°01'0 0.0
2018-Jun-12 21:30N 40°40' W 074°01'0 0.0
2018-Jun-12 21:00N 40°40' W 074°01'0 0.0
2018-Jun-12 20:31N 40°40' W 074°01'0 0.0
2018-Jun-12 20:00N 40°40' W 074°01'0 1.0
2018-Jun-12 19:30N 40°40' W 074°00'1 2.9
2018-Jun-12 19:00N 40°39' W 074°02'4 7.7
2018-Jun-12 18:30N 40°39' W 074°07'0 0.0
2018-Jun-12 18:00N 40°39' W 074°07'1 0.2
2018-Jun-12 14:55N 40°38' W 074°08'0 0.0
2018-Jun-12 13:49N 40°38' W 074°08'1 0.1
2018-Jun-12 01:57N 40°39' W 074°07'0 0.0
2018-Jun-12 01:30N 40°39' W 074°07'0 0.0
2018-Jun-12 01:00N 40°39' W 074°07'0 0.0
2018-Jun-12 00:30N 40°39' W 074°07'0 0.0
2018-Jun-11 23:58N 40°39' W 074°07'1 1.6
2018-Jun-11 23:02N 40°39' W 074°05'1 5.4
2018-Jun-11 22:56N 40°39' W 074°04'1 2.9
2018-Jun-11 22:30N 40°39' W 074°03'0 0.2
2018-Jun-11 21:58N 40°39' W 074°03'1 1.9
2018-Jun-11 21:24N 40°40' W 074°02'1 2.8
2018-Jun-11 21:00N 40°41' W 074°02'1 1.3
2018-Jun-11 20:30N 40°40' W 074°01'0 0.0
2018-Jun-11 20:00N 40°40' W 074°01'0 0.0
2018-Jun-11 19:29N 40°40' W 074°01'0 0.0
2018-Jun-11 17:18N 40°40' W 074°01'0 0.0
2018-Jun-11 15:59N 40°40' W 074°01'0 0.0
2018-Jun-11 15:30N 40°40' W 074°01'0 0.0
2018-Jun-11 14:57N 40°40' W 074°01'0 0.0
2018-Jun-11 13:33N 40°40' W 074°01'0 0.1
2018-Jun-11 13:20N 40°40' W 074°01'0 0.0
2018-Jun-11 12:56N 40°40' W 074°01'0 0.0
2018-Jun-11 12:26N 40°40' W 074°01'0 0.0
2018-Jun-11 11:59N 40°40' W 074°01'0 0.0
2018-Jun-11 11:29N 40°40' W 074°01'0 0.0
2018-Jun-11 10:59N 40°40' W 074°01'0 0.0
2018-Jun-11 10:29N 40°40' W 074°01'0 0.0
2018-Jun-11 09:59N 40°40' W 074°01'0 0.0
2018-Jun-11 09:17N 40°40' W 074°01'0 0.0
2018-Jun-11 08:11N 40°40' W 074°01'0 0.0
2018-Jun-11 07:56N 40°40' W 074°01'0 0.0
2018-Jun-11 07:26N 40°40' W 074°01'0 0.0
2018-Jun-11 06:59N 40°40' W 074°01'0 0.0
2018-Jun-11 06:29N 40°40' W 074°01'0 0.0
2018-Jun-11 05:59N 40°40' W 074°01'0 0.0
2018-Jun-11 05:29N 40°40' W 074°01'0 0.0
2018-Jun-11 04:59N 40°40' W 074°01'0 0.0
2018-Jun-11 04:29N 40°40' W 074°01'0 0.0
2018-Jun-11 03:59N 40°40' W 074°01'0 0.1
2018-Jun-11 03:29N 40°40' W 074°01'0 0.0
2018-Jun-11 02:59N 40°40' W 074°01'0 0.0
2018-Jun-11 02:29N 40°40' W 074°01'0 0.0
2018-Jun-11 01:59N 40°40' W 074°01'0 0.0
2018-Jun-11 01:29N 40°40' W 074°01'0 0.0
2018-Jun-11 00:59N 40°40' W 074°01'0 0.0
2018-Jun-11 00:29N 40°40' W 074°01'0 0.0
2018-Jun-10 23:59N 40°40' W 074°01'0 0.0
2018-Jun-10 23:29N 40°40' W 074°01'0 0.0
2018-Jun-10 22:59N 40°40' W 074°01'0 0.0
2018-Jun-10 22:29N 40°40' W 074°01'0 0.0
2018-Jun-10 21:59N 40°40' W 074°01'0 0.0
2018-Jun-10 21:29N 40°40' W 074°01'0 0.0
2018-Jun-10 20:59N 40°40' W 074°01'0 0.0
2018-Jun-10 20:29N 40°40' W 074°01'0 0.0
2018-Jun-10 19:59N 40°40' W 074°01'0 0.0
2018-Jun-10 19:29N 40°40' W 074°01'0 0.0
2018-Jun-10 18:59N 40°40' W 074°01'0 0.0
2018-Jun-10 18:29N 40°40' W 074°01'0 0.0
2018-Jun-10 17:59N 40°40' W 074°01'0 0.0
2018-Jun-10 17:29N 40°40' W 074°01'0 0.0
2018-Jun-10 16:59N 40°40' W 074°01'0 0.0
2018-Jun-10 16:29N 40°40' W 074°01'0 0.0
2018-Jun-10 15:59N 40°40' W 074°01'0 0.0
2018-Jun-10 15:29N 40°40' W 074°01'0 0.0
2018-Jun-10 14:59N 40°40' W 074°01'0 0.0
2018-Jun-10 14:29N 40°40' W 074°01'0 0.0
2018-Jun-10 13:29N 40°40' W 074°01'0 0.0
2018-Jun-10 12:59N 40°40' W 074°01'0 0.0
2018-Jun-10 12:29N 40°40' W 074°01'0 0.0
2018-Jun-10 11:59N 40°40' W 074°01'0 0.0
2018-Jun-10 11:29N 40°40' W 074°01'0 0.0
2018-Jun-10 10:59N 40°40' W 074°01'0 0.0
2018-Jun-10 10:29N 40°40' W 074°01'0 0.0
2018-Jun-10 09:59N 40°40' W 074°01'0 0.0
2018-Jun-10 09:29N 40°40' W 074°01'0 0.0
2018-Jun-10 08:59N 40°40' W 074°01'0 0.0
2018-Jun-10 08:29N 40°40' W 074°01'0 0.0
2018-Jun-10 07:59N 40°40' W 074°01'0 0.0
2018-Jun-10 07:29N 40°40' W 074°01'0 0.0
2018-Jun-10 06:59N 40°40' W 074°01'0 0.0
2018-Jun-10 06:29N 40°40' W 074°01'0 0.0
2018-Jun-10 05:59N 40°40' W 074°01'0 0.0
2018-Jun-10 05:29N 40°40' W 074°01'0 0.0
2018-Jun-10 04:59N 40°40' W 074°01'0 0.0
2018-Jun-10 04:29N 40°40' W 074°01'0 0.0
2018-Jun-10 03:59N 40°40' W 074°01'0 0.0
2018-Jun-10 03:29N 40°40' W 074°01'0 0.0
2018-Jun-10 02:59N 40°40' W 074°01'0 0.0
2018-Jun-10 02:29N 40°40' W 074°01'0 0.0
2018-Jun-10 01:59N 40°40' W 074°01'0 0.0
2018-Jun-10 01:29N 40°40' W 074°01'0 0.0
2018-Jun-10 00:59N 40°40' W 074°01'0 0.0
2018-Jun-10 00:29N 40°40' W 074°01'0 0.0
2018-Jun-09 23:59N 40°40' W 074°01'0 0.0
2018-Jun-09 23:29N 40°40' W 074°01'0 0.0
2018-Jun-09 22:59N 40°40' W 074°01'0 0.0
2018-Jun-09 22:29N 40°40' W 074°01'0 0.0
2018-Jun-09 21:59N 40°40' W 074°01'0 0.0
2018-Jun-09 21:31N 40°40' W 074°01'510.0
2018-Jun-09 21:00N 40°39' W 074°07'0 0.7
2018-Jun-09 20:30N 40°38' W 074°08'0 0.0
2018-Jun-09 20:00N 40°38' W 074°08'0 0.0
2018-Jun-09 19:00N 40°38' W 074°08'0 0.0
2018-Jun-09 18:30N 40°38' W 074°08'0 0.0
2018-Jun-09 18:00N 40°38' W 074°08'0 0.0
2018-Jun-09 17:30N 40°38' W 074°08'0 0.0
2018-Jun-09 16:54N 40°38' W 074°08'0 0.0
2018-Jun-09 16:30N 40°38' W 074°08'0 0.0
2018-Jun-09 16:00N 40°38' W 074°08'0 0.0
2018-Jun-09 15:00N 40°38' W 074°08'0 0.0
2018-Jun-09 14:30N 40°38' W 074°08'0 0.0
2018-Jun-09 14:00N 40°38' W 074°08'0 0.0
2018-Jun-09 13:30N 40°38' W 074°08'0 0.0
2018-Jun-09 13:00N 40°38' W 074°08'0 0.0
2018-Jun-09 12:30N 40°38' W 074°08'0 0.0
2018-Jun-09 12:00N 40°38' W 074°08'0 0.0
2018-Jun-09 11:30N 40°38' W 074°08'0 0.0
2018-Jun-09 11:00N 40°38' W 074°08'1 1.0
2018-Jun-09 10:30N 40°39' W 074°07'4 9.0
2018-Jun-09 10:00N 40°41' W 074°02'1 1.6
2018-Jun-09 09:29N 40°40' W 074°01'0 0.0
2018-Jun-09 08:59N 40°40' W 074°01'0 0.0
2018-Jun-09 08:29N 40°40' W 074°01'0 0.0
2018-Jun-09 07:59N 40°40' W 074°01'0 0.0
2018-Jun-09 07:29N 40°40' W 074°01'0 0.0
2018-Jun-09 06:59N 40°40' W 074°01'0 0.0
2018-Jun-09 06:29N 40°40' W 074°01'0 0.0
2018-Jun-09 05:59N 40°40' W 074°01'0 0.0
2018-Jun-09 05:29N 40°40' W 074°01'0 0.0
2018-Jun-09 04:59N 40°40' W 074°01'0 0.5
2018-Jun-09 04:30N 40°40' W 074°01'1 2.2
2018-Jun-09 04:01N 40°40' W 074°02'0 0.8
2018-Jun-09 03:29N 40°40' W 074°02'0 0.0
2018-Jun-09 02:59N 40°40' W 074°02'0 0.0
2018-Jun-09 02:29N 40°40' W 074°02'0 0.0
2018-Jun-09 01:59N 40°40' W 074°02'0 0.1
2018-Jun-09 01:29N 40°40' W 074°02'0 0.0
2018-Jun-09 00:59N 40°40' W 074°02'0 0.0
2018-Jun-09 00:29N 40°40' W 074°02'0 0.0
2018-Jun-08 23:59N 40°40' W 074°02'0 0.1
2018-Jun-08 23:29N 40°40' W 074°02'0 0.1
2018-Jun-08 22:59N 40°40' W 074°02'1 2.2
2018-Jun-08 22:31N 40°40' W 074°01'1 1.9
2018-Jun-08 22:00N 40°40' W 074°02'1 1.8
2018-Jun-08 21:30N 40°41' W 074°02'4 8.4
2018-Jun-08 21:00N 40°45' W 074°01'  

Dump ship's entire track history